createdAt,value
2019-03-02T00:00:09.842Z,70.35
2019-03-02T00:01:13.437Z,70.82
2019-03-02T00:03:02.885Z,71.39
2019-03-02T00:04:02.935Z,71.11
2019-03-02T00:05:57.006Z,71.58
2019-03-02T00:06:55.964Z,71.86
2019-03-02T00:08:48.943Z,72.25
2019-03-02T00:09:49.023Z,72.72
2019-03-02T00:11:41.983Z,73.00
2019-03-02T00:12:42.041Z,72.81
2019-03-02T00:14:35.018Z,72.91
2019-03-02T00:15:35.076Z,73.00
2019-03-02T00:17:28.063Z,72.81
2019-03-02T00:18:29.065Z,72.81
2019-03-02T00:20:21.092Z,73.38
2019-03-02T00:21:21.147Z,74.15
2019-03-02T00:23:15.846Z,73.96
2019-03-02T00:24:14.172Z,74.24
2019-03-02T00:26:10.293Z,73.29
2019-03-02T00:27:07.219Z,73.38
2019-03-02T00:29:00.187Z,73.57
2019-03-02T00:30:00.300Z,73.29
2019-03-02T00:31:53.219Z,73.48
2019-03-02T00:32:53.273Z,73.86
2019-03-02T00:34:46.250Z,73.29
2019-03-02T00:35:46.308Z,73.29
2019-03-02T00:37:39.295Z,73.10
2019-03-02T00:38:40.655Z,72.63
2019-03-02T00:40:33.821Z,72.72
2019-03-02T00:41:32.367Z,73.10
2019-03-02T00:43:27.136Z,73.29
2019-03-02T00:44:25.401Z,73.57
2019-03-02T00:46:20.641Z,73.48
2019-03-02T00:47:18.454Z,73.86
2019-03-02T00:49:11.427Z,73.38
2019-03-02T00:50:11.485Z,73.48
2019-03-02T00:52:04.463Z,73.19
2019-03-02T00:53:04.516Z,73.19
2019-03-02T00:54:58.419Z,73.29
2019-03-02T00:55:57.547Z,73.19
2019-03-02T00:57:50.734Z,73.29
2019-03-02T00:58:50.576Z,73.76
2019-03-02T01:00:43.559Z,73.29
2019-03-02T01:01:43.616Z,73.38
2019-03-02T01:03:36.607Z,73.48
2019-03-02T01:04:36.651Z,73.00
2019-03-02T01:06:29.640Z,72.91
2019-03-02T01:07:29.687Z,73.57
2019-03-02T01:09:22.665Z,73.29
2019-03-02T01:10:23.564Z,72.91
2019-03-02T01:12:15.703Z,73.48
2019-03-02T01:13:16.860Z,73.38
2019-03-02T01:15:09.293Z,74.05
2019-03-02T01:16:08.779Z,73.10
2019-03-02T01:18:03.663Z,73.19
2019-03-02T01:19:01.823Z,73.00
2019-03-02T01:20:54.801Z,73.86
2019-03-02T01:21:54.854Z,73.38
2019-03-02T01:23:47.842Z,72.72
2019-03-02T01:24:47.891Z,73.00
2019-03-02T01:26:40.872Z,72.91
2019-03-02T01:27:40.924Z,73.10
2019-03-02T01:29:33.901Z,72.81
2019-03-02T01:30:33.956Z,72.72
2019-03-02T01:32:26.942Z,73.48
2019-03-02T01:33:28.619Z,73.19
2019-03-02T01:35:21.577Z,73.10
2019-03-02T01:36:20.023Z,72.72
2019-03-02T01:38:15.700Z,72.81
2019-03-02T01:39:13.051Z,72.53
2019-03-02T01:41:06.027Z,72.06
2019-03-02T01:42:06.081Z,73.00
2019-03-02T01:43:59.069Z,73.10
2019-03-02T01:44:59.114Z,73.29
2019-03-02T01:46:52.100Z,72.81
2019-03-02T01:47:52.163Z,73.10
2019-03-02T01:49:45.127Z,72.91
2019-03-02T01:50:47.762Z,73.57
2019-03-02T01:52:38.167Z,73.76
2019-03-02T01:53:38.219Z,73.96
2019-03-02T01:55:32.091Z,74.05
2019-03-02T01:56:31.247Z,73.86
2019-03-02T01:58:24.565Z,73.76
2019-03-02T01:59:24.284Z,74.33
2019-03-02T02:01:17.257Z,74.24
2019-03-02T02:02:17.314Z,73.86
2019-03-02T02:04:10.294Z,73.76
2019-03-02T02:05:10.345Z,73.10
2019-03-02T02:07:03.325Z,73.86
2019-03-02T02:08:03.379Z,73.67
2019-03-02T02:09:57.859Z,73.38
2019-03-02T02:10:57.913Z,73.38
2019-03-02T02:12:50.900Z,73.76
2019-03-02T02:13:50.946Z,73.29
2019-03-02T02:15:43.919Z,74.15
2019-03-02T02:16:43.974Z,73.86
2019-03-02T02:18:36.965Z,73.19
2019-03-02T02:19:38.628Z,73.67
2019-03-02T02:21:29.986Z,73.19
2019-03-02T02:22:30.042Z,73.19
2019-03-02T02:24:24.899Z,73.00
2019-03-02T02:25:23.072Z,72.25
2019-03-02T02:27:18.782Z,71.96
2019-03-02T02:28:16.109Z,72.63
2019-03-02T02:30:09.097Z,72.53
2019-03-02T02:31:09.143Z,72.25
2019-03-02T02:33:04.085Z,72.34
2019-03-02T02:34:02.182Z,72.44
2019-03-02T02:35:55.175Z,72.34
2019-03-02T02:36:58.166Z,71.67
2019-03-02T02:38:53.966Z,71.48
2019-03-02T02:39:48.270Z,71.58
2019-03-02T02:41:41.244Z,71.58
2019-03-02T02:42:43.183Z,71.39
2019-03-02T02:44:37.566Z,71.11
2019-03-02T02:45:34.332Z,71.20
2019-03-02T02:47:27.310Z,71.30
2019-03-02T02:48:31.235Z,71.30
2019-03-02T02:50:27.943Z,71.48
2019-03-02T02:51:20.392Z,71.17
2019-03-02T02:53:13.392Z,71.30
2019-03-02T02:54:13.429Z,71.30
2019-03-02T02:56:06.401Z,70.92
2019-03-02T02:57:06.456Z,71.20
2019-03-02T02:59:01.632Z,70.59
2019-03-02T02:59:59.489Z,70.59
2019-03-02T03:01:52.477Z,70.88
2019-03-02T03:02:52.517Z,70.40
2019-03-02T03:04:45.499Z,69.93
2019-03-02T03:05:49.160Z,70.40
2019-03-02T03:07:38.556Z,70.31
2019-03-02T03:08:38.584Z,69.93
2019-03-02T03:10:31.561Z,70.21
2019-03-02T03:11:31.616Z,69.84
2019-03-02T03:13:24.597Z,69.74
2019-03-02T03:14:24.646Z,70.03
2019-03-02T03:16:18.042Z,69.84
2019-03-02T03:17:17.684Z,69.84
2019-03-02T03:19:10.663Z,69.84
2019-03-02T03:20:11.900Z,69.55
2019-03-02T03:22:07.384Z,69.46
2019-03-02T03:23:03.750Z,69.65
2019-03-02T03:24:56.723Z,69.93
2019-03-02T03:25:58.580Z,69.46
2019-03-02T03:27:51.965Z,69.27
2019-03-02T03:28:49.803Z,69.46
2019-03-02T03:30:42.790Z,69.65
2019-03-02T03:31:42.838Z,69.08
2019-03-02T03:33:43.218Z,68.79
2019-03-02T03:34:35.872Z,68.41
2019-03-02T03:36:30.040Z,68.32
2019-03-02T03:37:28.904Z,67.75
2019-03-02T03:39:21.884Z,67.85
2019-03-02T03:40:25.495Z,68.23
2019-03-02T03:42:22.298Z,68.23
2019-03-02T03:43:14.967Z,67.65
2019-03-02T03:45:07.955Z,67.46
2019-03-02T03:46:07.991Z,67.85
2019-03-02T03:48:00.963Z,67.65
2019-03-02T03:49:01.026Z,66.99
2019-03-02T03:50:54.083Z,67.37
2019-03-02T03:51:54.056Z,67.27
2019-03-02T03:53:47.037Z,67.65
2019-03-02T03:54:47.089Z,67.56
2019-03-02T03:56:42.500Z,67.56
2019-03-02T03:57:40.139Z,67.65
2019-03-02T03:59:33.124Z,67.65
2019-03-02T04:00:34.291Z,67.37
2019-03-02T04:02:26.422Z,67.56
2019-03-02T04:03:26.201Z,67.56
2019-03-02T04:05:19.181Z,67.27
2019-03-02T04:06:23.546Z,67.27
2019-03-02T04:08:12.206Z,67.37
2019-03-02T04:09:12.261Z,67.18
2019-03-02T04:11:05.877Z,67.27
2019-03-02T04:12:06.445Z,67.27
2019-03-02T04:13:58.289Z,67.46
2019-03-02T04:15:01.320Z,67.27
2019-03-02T04:16:55.834Z,67.75
2019-03-02T04:17:51.355Z,67.85
2019-03-02T04:19:44.341Z,67.75
2019-03-02T04:20:45.654Z,67.27
2019-03-02T04:22:39.817Z,66.80
2019-03-02T04:23:37.422Z,67.08
2019-03-02T04:25:30.404Z,66.71
2019-03-02T04:26:31.740Z,66.71
2019-03-02T04:28:27.732Z,66.61
2019-03-02T04:29:23.488Z,65.95
2019-03-02T04:31:16.479Z,66.04
2019-03-02T04:32:16.525Z,66.33
2019-03-02T04:34:09.510Z,65.85
2019-03-02T04:35:09.553Z,65.95
2019-03-02T04:37:02.527Z,66.23
2019-03-02T04:38:02.583Z,66.33
2019-03-02T04:39:57.378Z,66.14
2019-03-02T04:40:55.612Z,66.14
2019-03-02T04:42:50.162Z,65.95
2019-03-02T04:43:50.715Z,65.95
2019-03-02T04:45:41.623Z,65.85
2019-03-02T04:46:41.673Z,66.33
2019-03-02T04:48:35.782Z,65.95
2019-03-02T04:49:34.704Z,66.04
2019-03-02T04:51:27.687Z,66.14
2019-03-02T04:52:27.733Z,66.14
2019-03-02T04:54:20.732Z,66.42
2019-03-02T04:55:20.765Z,65.75
2019-03-02T04:57:13.740Z,65.66
2019-03-02T04:58:13.790Z,65.47
2019-03-02T05:00:06.776Z,66.33
2019-03-02T05:01:07.079Z,66.23
2019-03-02T05:02:59.804Z,66.04
2019-03-02T05:03:59.861Z,66.52
2019-03-02T05:05:52.845Z,65.66
2019-03-02T05:06:54.536Z,65.37
2019-03-02T05:08:45.868Z,65.37
2019-03-02T05:09:48.633Z,65.37
2019-03-02T05:11:39.591Z,65.37
2019-03-02T05:12:38.950Z,65.66
2019-03-02T05:14:31.931Z,65.00
2019-03-02T05:15:31.983Z,65.56
2019-03-02T05:17:24.977Z,65.00
2019-03-02T05:18:25.033Z,65.00
2019-03-02T05:20:18.013Z,64.90
2019-03-02T05:21:18.061Z,64.43
2019-03-02T05:23:11.035Z,63.76
2019-03-02T05:24:11.088Z,63.95
2019-03-02T05:26:04.064Z,64.71
2019-03-02T05:27:04.121Z,64.14
2019-03-02T05:28:57.099Z,63.95
2019-03-02T05:29:57.153Z,64.05
2019-03-02T05:31:50.137Z,63.76
2019-03-02T05:32:51.290Z,64.05
2019-03-02T05:34:43.170Z,63.67
2019-03-02T05:35:43.220Z,63.86
2019-03-02T05:37:39.266Z,63.48
2019-03-02T05:38:36.252Z,63.76
2019-03-02T05:40:29.237Z,63.95
2019-03-02T05:41:29.282Z,64.05
2019-03-02T05:43:23.576Z,63.67
2019-03-02T05:44:22.517Z,63.95
2019-03-02T05:46:15.294Z,64.14
2019-03-02T05:47:15.368Z,63.86
2019-03-02T05:49:08.336Z,63.76
2019-03-02T05:50:08.392Z,64.14
2019-03-02T05:52:01.378Z,64.05
2019-03-02T05:53:01.421Z,63.86
2019-03-02T05:54:54.407Z,63.29
2019-03-02T05:55:54.974Z,63.39
2019-03-02T05:57:47.428Z,63.76
2019-03-02T05:58:47.675Z,63.57
2019-03-02T06:00:40.470Z,63.76
2019-03-02T06:01:41.180Z,63.95
2019-03-02T06:03:33.485Z,63.95
2019-03-02T06:04:33.537Z,63.76
2019-03-02T06:06:26.641Z,63.10
2019-03-02T06:07:26.603Z,63.29
2019-03-02T06:09:19.552Z,63.20
2019-03-02T06:10:21.784Z,63.48
2019-03-02T06:12:15.477Z,64.14
2019-03-02T06:13:12.647Z,63.76
2019-03-02T06:15:07.748Z,63.76
2019-03-02T06:16:05.675Z,63.95
2019-03-02T06:17:58.652Z,62.91
2019-03-02T06:18:58.703Z,63.39
2019-03-02T06:20:51.689Z,63.01
2019-03-02T06:21:51.744Z,64.05
2019-03-02T06:23:44.711Z,63.39
2019-03-02T06:24:44.766Z,63.48
2019-03-02T06:26:37.751Z,63.10
2019-03-02T06:27:37.798Z,62.62
2019-03-02T06:29:32.737Z,62.72
2019-03-02T06:30:30.830Z,62.62
2019-03-02T06:32:25.950Z,62.82
2019-03-02T06:33:23.864Z,61.96
2019-03-02T06:35:16.848Z,62.43
2019-03-02T06:36:16.898Z,62.15
2019-03-02T06:38:09.891Z,62.34
2019-03-02T06:39:09.943Z,62.15
2019-03-02T06:41:02.932Z,62.72
2019-03-02T06:42:06.167Z,62.62
2019-03-02T06:43:58.457Z,62.82
2019-03-02T06:44:56.006Z,61.96
2019-03-02T06:46:48.986Z,61.49
2019-03-02T06:47:49.035Z,61.39
2019-03-02T06:49:42.013Z,61.01
2019-03-02T06:50:42.066Z,61.49
2019-03-02T06:52:35.052Z,61.49
2019-03-02T06:53:37.143Z,61.30
2019-03-02T06:55:28.091Z,61.11
2019-03-02T06:56:28.129Z,61.20
2019-03-02T06:58:22.617Z,61.20
2019-03-02T06:59:21.162Z,61.20
2019-03-02T07:01:14.140Z,61.39
2019-03-02T07:02:14.191Z,60.92
2019-03-02T07:04:07.185Z,61.20
2019-03-02T07:05:07.579Z,61.01
2019-03-02T07:07:00.204Z,61.11
2019-03-02T07:08:00.274Z,62.05
2019-03-02T07:09:53.740Z,61.99
2019-03-02T07:10:54.501Z,62.08
2019-03-02T07:12:46.954Z,61.90
2019-03-02T07:13:46.822Z,62.08
2019-03-02T07:15:40.457Z,62.94
2019-03-02T07:16:39.853Z,62.75
2019-03-02T07:18:32.835Z,63.70
2019-03-02T07:19:33.019Z,63.32
2019-03-02T07:21:25.865Z,63.60
2019-03-02T07:22:25.910Z,63.70
2019-03-02T07:24:18.907Z,64.84
2019-03-02T07:25:18.944Z,64.56
2019-03-02T07:27:11.926Z,64.75
2019-03-02T07:28:11.971Z,64.75
2019-03-02T07:30:04.954Z,65.22
2019-03-02T07:31:05.007Z,65.03
2019-03-02T07:32:57.990Z,64.94
2019-03-02T07:33:58.039Z,65.03
2019-03-02T07:35:51.801Z,65.69
2019-03-02T07:36:51.069Z,65.41
2019-03-02T07:38:44.051Z,65.41
2019-03-02T07:39:44.099Z,65.41
2019-03-02T07:41:37.083Z,65.88
2019-03-02T07:42:37.138Z,65.79
2019-03-02T07:44:30.110Z,66.36
2019-03-02T07:45:31.248Z,66.17
2019-03-02T07:47:24.018Z,65.98
2019-03-02T07:48:23.218Z,65.79
2019-03-02T07:50:16.201Z,65.98
2019-03-02T07:51:16.248Z,66.36
2019-03-02T07:53:09.235Z,66.49
2019-03-02T07:54:09.290Z,66.93
2019-03-02T07:56:02.252Z,67.31
2019-03-02T07:57:05.049Z,66.93
2019-03-02T07:58:55.817Z,67.02
2019-03-02T07:59:55.346Z,66.39
2019-03-02T08:01:48.833Z,67.15
2019-03-02T08:02:48.375Z,66.87
2019-03-02T08:04:41.357Z,66.77
2019-03-02T08:05:41.407Z,66.96
2019-03-02T08:07:38.064Z,68.10
2019-03-02T08:08:34.441Z,67.91
2019-03-02T08:10:27.927Z,69.05
2019-03-02T08:11:27.977Z,68.67
2019-03-02T08:13:21.464Z,68.96
2019-03-02T08:14:21.517Z,68.77
2019-03-02T08:16:14.493Z,68.58
2019-03-02T08:17:14.543Z,68.58
2019-03-02T08:19:07.522Z,68.96
2019-03-02T08:20:07.571Z,68.67
2019-03-02T08:22:00.566Z,68.67
2019-03-02T08:23:00.610Z,69.05
2019-03-02T08:24:53.584Z,68.58
2019-03-02T08:25:53.641Z,69.34
2019-03-02T08:27:46.623Z,68.58
2019-03-02T08:28:46.710Z,68.39
2019-03-02T08:30:39.647Z,68.58
2019-03-02T08:31:42.024Z,68.29
2019-03-02T08:33:33.608Z,68.58
2019-03-02T08:34:32.735Z,68.10
2019-03-02T08:36:25.714Z,68.29
2019-03-02T08:37:26.744Z,67.82
2019-03-02T08:39:18.758Z,67.15
2019-03-02T08:40:19.329Z,66.87
2019-03-02T08:42:12.158Z,66.77
2019-03-02T08:43:13.005Z,66.77
2019-03-02T08:45:04.832Z,66.96
2019-03-02T08:46:07.487Z,66.77
2019-03-02T08:47:57.872Z,67.44
2019-03-02T08:48:57.920Z,67.34
2019-03-02T08:50:53.035Z,67.25
2019-03-02T08:51:50.954Z,67.06
2019-03-02T08:53:43.953Z,66.96
2019-03-02T08:54:43.984Z,66.77
2019-03-02T08:56:36.964Z,66.87
2019-03-02T08:57:37.010Z,67.25
2019-03-02T08:59:29.993Z,67.06
2019-03-02T09:00:30.041Z,66.96
2019-03-02T09:02:23.683Z,67.06
2019-03-02T09:03:23.086Z,67.38
2019-03-02T09:05:16.059Z,68.10
2019-03-02T09:06:16.112Z,68.01
2019-03-02T09:08:09.102Z,68.19
2019-03-02T09:09:09.146Z,67.91
2019-03-02T09:11:02.125Z,68.42
2019-03-02T09:12:02.185Z,68.23
2019-03-02T09:13:55.163Z,67.85
2019-03-02T09:14:55.211Z,67.85
2019-03-02T09:16:48.197Z,66.90
2019-03-02T09:17:50.073Z,67.85
2019-03-02T09:19:41.235Z,67.85
2019-03-02T09:20:41.280Z,67.94
2019-03-02T09:22:34.279Z,68.13
2019-03-02T09:23:36.171Z,68.13
2019-03-02T09:25:28.278Z,67.76
2019-03-02T09:26:27.363Z,67.47
2019-03-02T09:28:20.343Z,67.47
2019-03-02T09:29:20.391Z,67.94
2019-03-02T09:31:13.375Z,68.13
2019-03-02T09:32:14.096Z,68.13
2019-03-02T09:34:06.411Z,68.42
2019-03-02T09:35:06.458Z,68.42
2019-03-02T09:36:59.444Z,68.52
2019-03-02T09:37:59.491Z,68.90
2019-03-02T09:39:52.478Z,68.52
2019-03-02T09:40:52.524Z,68.80
2019-03-02T09:42:45.507Z,68.61
2019-03-02T09:43:45.556Z,68.80
2019-03-02T09:45:38.533Z,68.99
2019-03-02T09:46:38.589Z,68.61
2019-03-02T09:48:31.586Z,69.09
2019-03-02T09:49:33.843Z,68.80
2019-03-02T09:51:24.599Z,68.52
2019-03-02T09:52:24.663Z,68.61
2019-03-02T09:54:17.644Z,68.52
2019-03-02T09:55:18.518Z,68.52
2019-03-02T09:57:10.666Z,68.13
2019-03-02T09:58:10.726Z,68.23
2019-03-02T10:00:03.713Z,68.13
2019-03-02T10:01:04.603Z,68.13
2019-03-02T10:02:58.254Z,69.12
2019-03-02T10:03:58.777Z,68.42
2019-03-02T10:05:51.265Z,68.55
2019-03-02T10:06:51.329Z,68.46
2019-03-02T10:08:45.854Z,68.84
2019-03-02T10:09:44.362Z,68.55
2019-03-02T10:11:37.355Z,68.65
2019-03-02T10:12:38.519Z,68.55
2019-03-02T10:14:30.390Z,69.41
2019-03-02T10:15:30.642Z,69.31
2019-03-02T10:17:23.422Z,69.60
2019-03-02T10:18:23.481Z,69.60
2019-03-02T10:20:16.460Z,69.69
2019-03-02T10:21:16.511Z,69.88
2019-03-02T10:23:09.505Z,69.88
2019-03-02T10:24:09.545Z,69.79
2019-03-02T10:26:03.904Z,69.69
2019-03-02T10:27:02.582Z,69.50
2019-03-02T10:28:55.581Z,69.12
2019-03-02T10:29:55.628Z,69.12
2019-03-02T10:31:48.607Z,69.50
2019-03-02T10:32:51.825Z,69.79
2019-03-02T10:34:42.828Z,69.60
2019-03-02T10:35:41.697Z,69.12
2019-03-02T10:37:34.686Z,68.84
2019-03-02T10:38:34.739Z,69.31
2019-03-02T10:40:27.721Z,68.65
2019-03-02T10:41:27.769Z,69.12
2019-03-02T10:43:20.756Z,69.41
2019-03-02T10:44:21.287Z,69.12
2019-03-02T10:46:13.793Z,69.79
2019-03-02T10:47:14.972Z,69.98
2019-03-02T10:49:09.624Z,69.79
2019-03-02T10:50:06.894Z,69.82
2019-03-02T10:51:59.874Z,69.63
2019-03-02T10:52:59.928Z,69.88
2019-03-02T10:54:52.929Z,69.12
2019-03-02T10:55:53.002Z,69.21
2019-03-02T10:57:45.955Z,69.06
2019-03-02T10:58:46.006Z,68.55
2019-03-02T11:00:38.994Z,69.50
2019-03-02T11:01:39.896Z,69.06
2019-03-02T11:03:33.014Z,69.63
2019-03-02T11:04:32.579Z,69.54
2019-03-02T11:06:25.570Z,69.69
2019-03-02T11:07:25.621Z,69.63
2019-03-02T11:09:22.448Z,69.15
2019-03-02T11:10:18.662Z,70.01
2019-03-02T11:12:11.636Z,69.92
2019-03-02T11:13:11.696Z,70.10
2019-03-02T11:15:07.561Z,69.92
2019-03-02T11:16:04.732Z,70.20
2019-03-02T11:17:58.774Z,70.10
2019-03-02T11:18:57.766Z,69.63
2019-03-02T11:20:50.746Z,70.01
2019-03-02T11:21:50.803Z,70.10
2019-03-02T11:23:43.782Z,70.49
2019-03-02T11:24:43.828Z,70.10
2019-03-02T11:26:36.815Z,69.82
2019-03-02T11:27:36.872Z,70.30
2019-03-02T11:29:29.858Z,70.77
2019-03-02T11:30:29.909Z,70.87
2019-03-02T11:32:22.892Z,70.97
2019-03-02T11:33:22.952Z,71.25
2019-03-02T11:35:15.934Z,71.15
2019-03-02T11:36:15.981Z,70.77
2019-03-02T11:38:08.963Z,70.87
2019-03-02T11:39:09.015Z,71.15
2019-03-02T11:41:04.963Z,70.87
2019-03-02T11:42:02.062Z,71.15
2019-03-02T11:43:55.041Z,71.53
2019-03-02T11:44:55.096Z,71.15
2019-03-02T11:46:48.080Z,71.25
2019-03-02T11:47:48.133Z,71.53
2019-03-02T11:49:41.137Z,71.63
2019-03-02T11:50:41.162Z,71.91
2019-03-02T11:52:34.979Z,72.39
2019-03-02T11:53:34.203Z,72.20
2019-03-02T11:55:28.863Z,71.72
2019-03-02T11:56:27.497Z,72.20
2019-03-02T11:58:20.205Z,73.28
2019-03-02T11:59:20.266Z,73.10
2019-03-02T12:01:13.255Z,74.14
2019-03-02T12:02:15.942Z,74.14
2019-03-02T12:04:06.281Z,74.52
2019-03-02T12:05:06.338Z,74.71
2019-03-02T12:06:59.325Z,75.19
2019-03-02T12:07:59.374Z,74.71
2019-03-02T12:09:52.356Z,74.84
2019-03-02T12:10:52.408Z,75.23
2019-03-02T12:12:45.425Z,75.89
2019-03-02T12:13:45.482Z,78.65
2019-03-02T12:15:38.478Z,78.50
2019-03-02T12:16:38.529Z,77.83
2019-03-02T12:18:31.504Z,77.74
2019-03-02T12:19:31.560Z,79.07
2019-03-02T12:21:24.544Z,80.88
2019-03-02T12:22:24.595Z,80.12
2019-03-02T12:24:19.149Z,79.83
2019-03-02T12:25:17.637Z,80.60
2019-03-02T12:27:10.625Z,80.22
2019-03-02T12:28:10.689Z,81.84
2019-03-02T12:30:03.662Z,81.46
2019-03-02T12:31:03.713Z,80.50
2019-03-02T12:32:56.695Z,80.02
2019-03-02T12:33:57.665Z,79.27
2019-03-02T12:35:49.742Z,80.26
2019-03-02T12:36:53.134Z,80.26
2019-03-02T12:38:44.542Z,80.16
2019-03-02T12:39:42.837Z,81.30
2019-03-02T12:41:35.824Z,80.35
2019-03-02T12:42:35.871Z,81.30
2019-03-02T12:44:28.853Z,80.73
2019-03-02T12:45:30.071Z,79.59
2019-03-02T12:47:21.899Z,81.49
2019-03-02T12:48:21.953Z,79.49
2019-03-02T12:50:14.938Z,80.26
2019-03-02T12:51:14.990Z,80.26
2019-03-02T12:53:07.967Z,80.44
2019-03-02T12:54:08.025Z,81.30
2019-03-02T12:56:01.019Z,80.26
2019-03-02T12:57:01.067Z,79.88
2019-03-02T12:58:55.432Z,81.12
2019-03-02T12:59:54.106Z,80.39
2019-03-02T13:01:47.101Z,80.39
2019-03-02T13:02:47.978Z,81.44
2019-03-02T13:04:41.840Z,81.63
2019-03-02T13:05:40.190Z,80.87
2019-03-02T13:07:33.177Z,80.20
2019-03-02T13:08:34.924Z,80.49
2019-03-02T13:10:26.229Z,80.39
2019-03-02T13:11:28.894Z,81.25
2019-03-02T13:13:20.751Z,81.54
2019-03-02T13:14:19.319Z,80.96
2019-03-02T13:16:12.315Z,80.96
2019-03-02T13:17:12.365Z,80.49
2019-03-02T13:19:05.350Z,80.49
2019-03-02T13:20:05.407Z,80.49
2019-03-02T13:21:58.392Z,81.92
2019-03-02T13:22:58.444Z,81.82
2019-03-02T13:24:53.648Z,80.96
2019-03-02T13:25:51.480Z,80.68
2019-03-02T13:27:44.473Z,81.48
2019-03-02T13:28:46.222Z,81.86
2019-03-02T13:30:37.514Z,80.91
2019-03-02T13:31:40.002Z,81.29
2019-03-02T13:33:34.202Z,81.10
2019-03-02T13:34:30.613Z,80.72
2019-03-02T13:36:23.596Z,80.15
2019-03-02T13:37:23.647Z,81.67
2019-03-02T13:39:16.633Z,81.29
2019-03-02T13:40:16.692Z,80.57
2019-03-02T13:42:09.674Z,81.90
2019-03-02T13:43:12.005Z,80.76
2019-03-02T13:45:02.711Z,81.43
2019-03-02T13:46:02.765Z,81.33
2019-03-02T13:47:55.753Z,81.01
2019-03-02T13:48:58.205Z,80.43
2019-03-02T13:50:53.647Z,80.43
2019-03-02T13:51:48.848Z,79.38
2019-03-02T13:53:41.838Z,79.67
2019-03-02T13:54:41.890Z,79.57
2019-03-02T13:56:34.880Z,79.86
2019-03-02T13:57:37.970Z,79.77
2019-03-02T13:59:30.869Z,79.10
2019-03-02T14:00:27.973Z,80.05
2019-03-02T14:02:20.959Z,79.86
2019-03-02T14:03:21.012Z,80.05
2019-03-02T14:05:14.003Z,80.24
2019-03-02T14:06:17.772Z,79.96
2019-03-02T14:08:07.337Z,80.24
2019-03-02T14:09:07.091Z,79.67
2019-03-02T14:11:01.493Z,80.53
2019-03-02T14:12:00.131Z,81.20
2019-03-02T14:13:53.115Z,80.33
2019-03-02T14:14:53.171Z,80.62
2019-03-02T14:16:46.157Z,79.86
2019-03-02T14:17:48.036Z,81.01
2019-03-02T14:19:42.000Z,80.81
2019-03-02T14:20:39.248Z,80.15
2019-03-02T14:22:32.238Z,81.01
2019-03-02T14:23:33.028Z,80.62
2019-03-02T14:25:25.281Z,80.24
2019-03-02T14:26:25.333Z,80.05
2019-03-02T14:28:18.322Z,80.66
2019-03-02T14:29:18.369Z,80.76
2019-03-02T14:31:19.894Z,80.95
2019-03-02T14:32:13.779Z,79.90
2019-03-02T14:34:07.203Z,80.76
2019-03-02T14:35:04.458Z,79.77
2019-03-02T14:36:57.440Z,79.86
2019-03-02T14:37:57.493Z,79.96
2019-03-02T14:39:50.475Z,79.57
2019-03-02T14:40:51.297Z,79.86
2019-03-02T14:42:44.322Z,79.48
2019-03-02T14:43:43.570Z,80.05
2019-03-02T14:45:36.553Z,80.05
2019-03-02T14:46:36.612Z,80.15
2019-03-02T14:48:29.602Z,79.67
2019-03-02T14:49:29.654Z,79.96
2019-03-02T14:51:22.643Z,79.38
2019-03-02T14:52:22.695Z,80.53
2019-03-02T14:54:17.318Z,79.38
2019-03-02T14:55:15.732Z,79.38
2019-03-02T14:57:08.719Z,80.43
2019-03-02T14:58:08.770Z,79.28
2019-03-02T15:00:01.754Z,79.25
2019-03-02T15:01:02.688Z,79.38
2019-03-02T15:02:55.304Z,79.48
2019-03-02T15:03:55.353Z,79.38
2019-03-02T15:05:48.332Z,79.48
2019-03-02T15:06:48.390Z,79.77
2019-03-02T15:08:41.375Z,79.00
2019-03-02T15:09:41.429Z,79.00
2019-03-02T15:11:36.538Z,79.38
2019-03-02T15:12:34.466Z,79.77
2019-03-02T15:14:27.454Z,80.05
2019-03-02T15:15:27.503Z,79.77
2019-03-02T15:17:20.495Z,80.72
2019-03-02T15:18:23.105Z,80.15
2019-03-02T15:20:13.526Z,79.28
2019-03-02T15:21:13.579Z,78.91
2019-03-02T15:23:06.573Z,79.67
2019-03-02T15:24:06.620Z,80.24
2019-03-02T15:26:02.090Z,79.48
2019-03-02T15:26:59.656Z,79.77
2019-03-02T15:28:52.647Z,79.38
2019-03-02T15:29:52.695Z,79.77
2019-03-02T15:31:45.703Z,79.38
2019-03-02T15:32:45.738Z,78.91
2019-03-02T15:34:49.105Z,78.81
2019-03-02T15:35:38.779Z,79.00
2019-03-02T15:37:31.769Z,78.52
2019-03-02T15:38:31.818Z,79.10
2019-03-02T15:40:24.895Z,78.49
2019-03-02T15:41:24.857Z,78.91
2019-03-02T15:43:17.842Z,78.77
2019-03-02T15:44:17.894Z,78.39
2019-03-02T15:46:10.873Z,78.39
2019-03-02T15:47:13.764Z,78.39
2019-03-02T15:49:05.163Z,78.49
2019-03-02T15:50:03.978Z,78.39
2019-03-02T15:51:56.969Z,77.82
2019-03-02T15:52:57.037Z,77.91
2019-03-02T15:54:50.013Z,78.01
2019-03-02T15:55:50.219Z,77.62
2019-03-02T15:57:43.991Z,77.82
2019-03-02T15:58:45.253Z,77.82
2019-03-02T16:00:36.083Z,77.72
2019-03-02T16:01:36.133Z,77.62
2019-03-02T16:03:29.655Z,77.62
2019-03-02T16:04:31.850Z,77.82
2019-03-02T16:06:23.244Z,77.82
2019-03-02T16:07:22.708Z,77.72
2019-03-02T16:09:15.699Z,77.91
2019-03-02T16:10:15.765Z,77.53
2019-03-02T16:12:09.784Z,78.10
2019-03-02T16:13:08.806Z,78.01
2019-03-02T16:15:01.809Z,78.39
2019-03-02T16:16:01.840Z,77.72
2019-03-02T16:17:54.827Z,78.49
2019-03-02T16:18:54.879Z,78.58
2019-03-02T16:20:47.861Z,78.10
2019-03-02T16:21:47.915Z,78.58
2019-03-02T16:23:43.548Z,78.30
2019-03-02T16:24:40.980Z,78.30
2019-03-02T16:26:33.962Z,77.82
2019-03-02T16:27:34.018Z,78.39
2019-03-02T16:29:27.009Z,78.10
2019-03-02T16:30:28.182Z,78.67
2019-03-02T16:32:20.262Z,77.91
2019-03-02T16:33:20.099Z,78.49
2019-03-02T16:35:13.084Z,77.53
2019-03-02T16:36:13.136Z,77.72
2019-03-02T16:38:06.139Z,76.54
2019-03-02T16:39:06.805Z,75.11
2019-03-02T16:40:59.726Z,74.82
2019-03-02T16:41:59.211Z,74.54
2019-03-02T16:43:52.198Z,74.63
2019-03-02T16:44:52.249Z,74.35
2019-03-02T16:46:45.228Z,74.54
2019-03-02T16:47:48.427Z,75.49
2019-03-02T16:49:40.122Z,75.40
2019-03-02T16:50:38.327Z,75.30
2019-03-02T16:52:31.310Z,75.30
2019-03-02T16:53:31.368Z,75.30
2019-03-02T16:55:24.362Z,73.58
2019-03-02T16:56:24.416Z,71.20
2019-03-02T16:58:18.206Z,69.77
2019-03-02T16:59:17.455Z,69.93
2019-03-02T17:01:10.437Z,69.83
2019-03-02T17:02:10.498Z,70.12
2019-03-02T17:04:03.478Z,70.02
2019-03-02T17:05:03.530Z,70.02
2019-03-02T17:06:56.522Z,69.45
2019-03-02T17:07:58.727Z,69.54
2019-03-02T17:09:49.558Z,68.78
2019-03-02T17:10:49.605Z,68.50
2019-03-02T17:12:42.583Z,67.07
2019-03-02T17:13:42.647Z,67.45
2019-03-02T17:15:35.632Z,66.69
2019-03-02T17:16:36.964Z,65.92
2019-03-02T17:18:28.682Z,64.47
2019-03-02T17:19:29.646Z,63.45
2019-03-02T17:21:21.749Z,63.04
2019-03-02T17:22:21.753Z,62.75
2019-03-02T17:24:14.742Z,61.70
2019-03-02T17:25:14.789Z,60.56
2019-03-02T17:27:07.779Z,59.99
2019-03-02T17:28:07.828Z,59.42
2019-03-02T17:30:00.809Z,58.37
2019-03-02T17:31:02.276Z,57.42
2019-03-02T17:32:54.682Z,56.75
2019-03-02T17:33:53.906Z,56.18
2019-03-02T17:35:46.898Z,55.13
2019-03-02T17:36:46.944Z,54.47
2019-03-02T17:38:39.927Z,53.61
2019-03-02T17:39:39.980Z,52.47
2019-03-02T17:41:32.982Z,51.70
2019-03-02T17:42:33.022Z,50.85
2019-03-02T17:44:26.014Z,50.09
2019-03-02T17:45:26.068Z,49.23
2019-03-02T17:47:19.049Z,48.08
2019-03-02T17:48:19.100Z,47.23
2019-03-02T17:50:12.091Z,45.89
2019-03-02T17:51:13.164Z,44.85
2019-03-02T17:53:05.140Z,43.42
2019-03-02T17:54:05.170Z,42.66
2019-03-02T17:56:01.015Z,41.52
2019-03-02T17:56:58.217Z,40.85
2019-03-02T17:58:51.190Z,39.99
2019-03-02T17:59:51.236Z,39.80
2019-03-02T18:01:45.739Z,39.04
2019-03-02T18:02:46.182Z,38.66
2019-03-02T18:04:39.385Z,38.09
2019-03-02T18:05:39.570Z,37.42
2019-03-02T18:07:33.117Z,37.04
2019-03-02T18:08:31.878Z,37.23
2019-03-02T18:10:24.880Z,36.37
2019-03-02T18:11:24.925Z,36.47
2019-03-02T18:13:17.903Z,35.97
2019-03-02T18:14:20.110Z,35.61
2019-03-02T18:16:10.955Z,35.23
2019-03-02T18:17:11.019Z,34.83
2019-03-02T18:19:07.123Z,34.66
2019-03-02T18:20:05.743Z,34.18
2019-03-02T18:21:57.025Z,33.80
2019-03-02T18:22:57.069Z,33.90
2019-03-02T18:24:50.083Z,33.80
2019-03-02T18:25:50.126Z,33.80
2019-03-02T18:27:43.124Z,33.42
2019-03-02T18:28:43.179Z,33.33
2019-03-02T18:30:38.956Z,33.23
2019-03-02T18:31:36.227Z,32.95
2019-03-02T18:33:29.214Z,32.37